Time;durP1;ratioP1;P1;durP2;ratioP2;P2;SDS_P1;SDS_P2;PMS_P1;PMS_P2;Temp;Humidity;BMP_temperature;BMP_pressure;BME280_temperature;BME280_humidity;BME280_pressure;Samples;Min_cycle;Max_cycle;Signal;HPM_P1;HPM_P2
2023/01/19 07:36:34;;;;;;;1.93;1.70;;;2.40;99.90;3.70;100178.00;;;;5029217;28;20217;-78
2023/01/19 07:39:00;;;;;;;2.47;2.27;;;2.30;99.90;3.10;100181.00;;;;5026891;28;20195;-79
2023/01/19 07:41:26;;;;;;;3.93;3.47;;;2.10;99.90;3.50;100194.00;;;;5021007;28;20195;-80
2023/01/19 07:43:55;;;;;;;0.90;0.90;;;2.20;99.90;3.10;100173.00;;;;5025270;28;20191;-78
2023/01/19 07:46:21;;;;;;;1.70;1.60;;;2.10;99.90;3.10;100155.00;;;;5035395;28;20195;-78
2023/01/19 07:48:50;;;;;;;4.40;3.60;;;2.00;99.90;3.00;100182.00;;;;5017791;28;20183;-77
2023/01/19 07:51:17;;;;;;;1.67;1.57;;;2.00;99.90;3.00;100199.00;;;;5034362;28;20650;-78
2023/01/19 07:53:54;;;;;;;1.57;1.40;;;2.00;99.90;2.70;100185.00;;;;5014300;28;20211;-77
2023/01/19 07:56:22;;;;;;;6.90;3.63;;;1.90;99.90;3.40;100200.00;;;;4995301;28;20240;-78
2023/01/19 07:58:51;;;;;;;1.83;1.73;;;2.10;99.90;2.60;100194.00;;;;5034441;28;20202;-78
2023/01/19 08:01:17;;;;;;;0.50;0.50;;;2.00;99.90;2.90;100211.00;;;;5018029;28;20198;-78
2023/01/19 08:03:43;;;;;;;2.77;2.00;;;1.90;99.90;3.40;100205.00;;;;5017499;28;20260;-79
2023/01/19 08:06:36;;;;;;;3.90;2.40;;;2.00;99.90;3.40;100218.00;;;;5017632;28;20199;-78
2023/01/19 08:09:10;;;;;;;3.83;3.00;;;2.10;99.90;3.00;100224.00;;;;5015961;28;20666;-79
2023/01/19 08:11:42;;;;;;;2.17;1.77;;;2.20;99.90;3.30;100227.00;;;;5017376;28;20214;-78
2023/01/19 08:14:12;;;;;;;3.97;2.93;;;2.10;99.90;3.80;100223.00;;;;5018226;28;20182;-78
2023/01/19 08:16:48;;;;;;;6.97;1.80;;;2.30;99.90;3.00;100220.00;;;;5007772;28;20306;-78
2023/01/19 08:19:14;;;;;;;1.53;1.30;;;2.20;99.90;3.10;100196.00;;;;5001192;28;20194;-78
2023/01/19 08:21:52;;;;;;;3.93;2.00;;;2.10;99.90;4.10;100224.00;;;;5034655;28;20563;-76
2023/01/19 08:24:21;;;;;;;0.30;0.30;;;2.50;99.90;3.40;100198.00;;;;5026966;28;20942;-76
2023/01/19 08:26:59;;;;;;;1.20;1.20;;;2.40;99.90;3.10;100231.00;;;;5023207;28;20263;-76
2023/01/19 08:29:32;;;;;;;5.60;2.17;;;2.30;99.90;3.30;100239.00;;;;5033679;28;20224;-76
2023/01/19 08:32:17;;;;;;;5.27;3.43;;;2.40;99.90;3.00;100238.00;;;;5033712;28;20686;-77
2023/01/19 08:34:46;;;;;;;6.00;4.97;;;2.30;99.90;3.00;100239.00;;;;5017174;28;20204;-77
2023/01/19 08:37:12;;;;;;;5.00;2.07;;;2.30;99.90;2.90;100242.00;;;;5016821;28;20651;-76
2023/01/19 08:39:40;;;;;;;1.63;1.53;;;2.30;99.90;3.30;100227.00;;;;5035048;28;20214;-77
2023/01/19 08:42:09;;;;;;;1.70;1.60;;;2.40;99.90;3.50;100210.00;;;;5033885;28;20647;-76
2023/01/19 08:44:38;;;;;;;0.40;0.40;;;2.50;99.90;4.40;100249.00;;;;5014128;28;20246;-77
2023/01/19 08:47:50;;;;;;;1.57;0.73;;;2.70;99.90;3.60;100249.00;;;;5011971;28;20191;-76
2023/01/19 08:50:16;;;;;;;3.17;2.83;;;2.80;99.90;3.70;100253.00;;;;5011908;28;20253;-77
2023/01/19 08:52:45;;;;;;;9.03;2.37;;;2.60;99.90;3.80;100250.00;;;;5016915;28;20257;-77
2023/01/19 08:55:11;;;;;;;5.33;3.93;;;2.60;99.90;3.70;100215.00;;;;5000226;28;20213;-76
2023/01/19 08:57:37;;;;;;;2.50;1.83;;;2.50;99.90;3.50;100259.00;;;;5025642;28;20277;-77
2023/01/19 09:00:06;;;;;;;1.70;1.60;;;2.50;99.90;3.40;100268.00;;;;5034450;28;20186;-77
2023/01/19 09:02:33;;;;;;;10.73;6.63;;;2.50;99.90;3.70;100248.00;;;;5010607;28;20732;-77
2023/01/19 09:05:03;;;;;;;0.30;0.30;;;2.60;99.90;4.80;100274.00;;;;5012018;28;20196;-76
2023/01/19 09:07:29;;;;;;;0.37;0.37;;;2.90;99.90;4.40;100288.00;;;;5016530;28;20685;-77
2023/01/19 09:10:03;;;;;;;6.47;2.93;;;3.00;99.90;5.20;100294.00;;;;5032875;28;20369;-77
2023/01/19 09:12:33;;;;;;;0.30;0.30;;;3.10;99.90;5.30;100289.00;;;;5011746;28;20215;-79
2023/01/19 09:14:59;;;;;;;0.40;0.40;;;3.30;99.90;6.50;100295.00;;;;5016621;28;20209;-75
2023/01/19 09:17:25;;;;;;;1.43;1.30;;;3.80;99.90;5.10;100302.00;;;;5030454;28;20202;-75
2023/01/19 09:19:54;;;;;;;1.90;1.63;;;3.70;99.90;4.60;100303.00;;;;5016660;28;20202;-77
2023/01/19 09:22:22;;;;;;;1.13;1.13;;;3.30;99.90;5.50;100295.00;;;;5000138;28;20341;-78
2023/01/19 09:24:48;;;;;;;3.10;0.63;;;3.50;99.90;6.00;100318.00;;;;5032555;28;20678;-75
2023/01/19 09:27:14;;;;;;;0.30;0.30;;;3.80;99.90;6.00;100270.00;;;;5032540;28;20540;-74
2023/01/19 09:29:51;;;;;;;1.10;1.10;;;3.80;99.90;6.40;100293.00;;;;5012757;28;20187;-75
2023/01/19 09:32:18;;;;;;;2.20;1.90;;;4.10;99.90;6.10;100335.00;;;;5012955;28;20298;-74
2023/01/19 09:34:44;;;;;;;0.40;0.40;;;4.00;99.90;7.20;100343.00;;;;5015168;28;20286;-76
2023/01/19 09:37:16;;;;;;;0.97;0.97;;;4.40;99.90;7.10;100356.00;;;;5015920;28;20207;-75
2023/01/19 09:39:44;;;;;;;0.50;0.50;;;4.50;99.90;6.30;100354.00;;;;4999777;28;20246;-71
2023/01/19 09:42:32;;;;;;;0.40;0.40;;;4.30;99.90;7.30;100318.00;;;;5016037;28;20192;-72
2023/01/19 09:45:06;;;;;;;0.93;0.93;;;4.40;99.90;7.30;100335.00;;;;5015199;28;20661;-73
2023/01/19 09:47:41;;;;;;;0.40;0.40;;;4.50;99.90;7.00;100368.00;;;;5012370;28;20196;-78
2023/01/19 09:50:51;;;;;;;0.90;0.90;;;4.50;99.90;7.50;100385.00;;;;5007915;28;20198;-65
2023/01/19 09:53:34;;;;;;;0.40;0.40;;;4.90;99.90;7.00;100372.00;;;;5004047;28;20217;-75
2023/01/19 09:56:00;;;;;;;0.93;0.93;;;4.60;99.90;7.30;100378.00;;;;4999266;28;20203;-73
2023/01/19 09:58:27;;;;;;;0.40;0.40;;;4.80;99.90;6.60;100384.00;;;;5015461;28;20238;-75
2023/01/19 10:01:11;;;;;;;0.47;0.40;;;4.60;99.90;6.30;100374.00;;;;5031724;28;20197;-68
2023/01/19 10:03:40;;;;;;;0.30;0.30;;;4.40;99.90;6.70;100384.00;;;;5015113;28;20203;-70
2023/01/19 10:06:10;;;;;;;0.40;0.40;;;4.50;99.90;6.80;100379.00;;;;5033360;28;20220;-71
2023/01/19 10:09:07;;;;;;;0.40;0.40;;;4.60;99.90;7.60;100395.00;;;;5011929;28;20193;-68
2023/01/19 10:11:42;;;;;;;2.40;1.43;;;4.80;99.90;7.30;100396.00;;;;5006547;28;20201;-73
2023/01/19 10:14:44;;;;;;;0.60;0.60;;;4.90;99.90;7.20;100406.00;;;;5009795;28;20195;-73
2023/01/19 10:17:33;;;;;;;0.57;0.57;;;4.90;99.90;5.90;100389.00;;;;5014278;28;20192;-70
2023/01/19 10:20:02;;;;;;;0.27;0.27;;;4.40;99.90;6.10;100367.00;;;;5006713;28;20196;-68
2023/01/19 10:33:26;;;;;;;0.70;0.70;;;3.20;99.90;4.60;100338.00;;;;5067902;28;20548;-76
2023/01/19 10:35:54;;;;;;;0.50;0.50;;;3.40;99.90;6.00;100336.00;;;;5049292;28;20187;-72
2023/01/19 10:38:21;;;;;;;0.27;0.27;;;3.80;99.90;6.40;100351.00;;;;5030910;28;20483;-71
2023/01/19 10:41:18;;;;;;;0.30;0.30;;;4.20;99.90;6.80;100349.00;;;;5015188;28;20596;-74
2023/01/19 10:43:46;;;;;;;2.37;2.27;;;4.60;99.90;7.50;100359.00;;;;5048868;28;20651;-73
2023/01/19 10:46:36;;;;;;;0.70;0.70;;;5.00;99.90;7.40;100320.00;;;;5037141;28;20535;-72
2023/01/19 10:49:05;;;;;;;0.20;0.20;;;5.00;99.90;7.50;100370.00;;;;5029985;28;20190;-72
2023/01/19 10:51:34;;;;;;;0.40;0.37;;;5.40;99.90;7.20;100369.00;;;;5029408;28;20578;-72
2023/01/19 10:54:03;;;;;;;0.47;0.47;;;5.40;99.90;5.90;100359.00;;;;5033533;28;20186;-72
2023/01/19 10:56:37;;;;;;;2.50;2.33;;;4.90;99.90;6.60;100365.00;;;;5028603;28;20228;-73
2023/01/19 10:59:06;;;;;;;0.20;0.20;;;5.10;99.90;6.00;100362.00;;;;5033597;28;20600;-72
2023/01/19 11:01:35;;;;;;;2.60;2.40;;;4.60;99.90;6.40;100368.00;;;;5033984;28;20200;-72
2023/01/19 11:04:27;;;;;;;1.60;1.60;;;4.70;99.90;6.80;100378.00;;;;5020370;28;20534;-72
2023/01/19 11:07:20;;;;;;;2.53;2.33;;;5.10;99.90;6.40;100362.00;;;;5042020;28;20189;-72
2023/01/19 11:09:47;;;;;;;1.37;1.27;;;4.70;99.90;5.60;100364.00;;;;5044357;28;20193;-72
2023/01/19 11:12:29;;;;;;;4.70;3.43;;;4.40;99.90;7.20;100357.00;;;;5052555;28;20671;-72
2023/01/19 11:15:03;;;;;;;2.13;1.23;;;4.90;99.90;7.70;100374.00;;;;5018406;28;20197;-72
2023/01/19 11:17:41;;;;;;;0.93;0.93;;;5.30;99.90;7.30;100384.00;;;;5030863;28;20267;-72
2023/01/19 11:20:23;;;;;;;2.13;1.70;;;5.50;99.90;8.20;100399.00;;;;5032182;28;20193;-72
2023/01/19 11:23:16;;;;;;;5.57;2.73;;;5.80;99.90;7.40;100366.00;;;;5016625;28;20200;-72
2023/01/19 11:25:50;;;;;;;1.33;1.23;;;5.60;99.90;7.00;100374.00;;;;5018206;28;20202;-72
2023/01/19 11:28:20;;;;;;;3.07;1.37;;;5.10;99.90;6.30;100376.00;;;;5052507;28;20664;-72
2023/01/19 11:31:02;;;;;;;2.73;0.93;;;5.00;99.90;6.90;100343.00;;;;5037693;28;20212;-72
2023/01/19 11:33:50;;;;;;;4.37;3.97;;;5.00;99.90;8.20;100404.00;;;;5024294;28;20286;-72
2023/01/19 11:36:21;;;;;;;0.73;0.73;;;5.70;99.90;7.10;100391.00;;;;5046410;28;20207;-70
2023/01/19 11:38:55;;;;;;;2.33;2.23;;;5.40;99.90;6.80;100388.00;;;;5031347;28;20185;-70
2023/01/19 11:41:38;;;;;;;2.50;2.30;;;5.20;99.90;6.50;100379.00;;;;5027715;28;20675;-70
2023/01/19 11:44:30;;;;;;;1.23;1.03;;;5.10;99.90;5.60;100334.00;;;;5027305;28;20249;-70
2023/01/19 11:47:13;;;;;;;1.23;1.23;;;4.60;99.90;6.00;100357.00;;;;5015902;28;20179;-70
2023/01/19 11:50:03;;;;;;;0.23;0.23;;;4.40;99.90;6.50;100362.00;;;;5027464;28;20215;-70
2023/01/19 11:52:47;;;;;;;0.33;0.33;;;4.70;99.90;5.30;100362.00;;;;5016739;28;20210;-70
2023/01/19 11:55:53;;;;;;;0.53;0.53;;;4.30;99.90;6.50;100353.00;;;;5027490;28;20181;-70
2023/01/19 11:58:20;;;;;;;2.00;1.90;;;4.40;99.90;7.00;100354.00;;;;5022881;28;20219;-70
2023/01/19 12:01:19;;;;;;;0.93;0.93;;;4.70;99.90;6.40;100343.00;;;;5030903;28;20718;-70
2023/01/19 12:04:08;;;;;;;0.30;0.30;;;4.80;99.90;6.10;100355.00;;;;5007581;28;20195;-70
2023/01/19 12:06:59;;;;;;;0.23;0.23;;;4.60;99.90;7.20;100366.00;;;;5019767;28;20182;-70
2023/01/19 12:09:41;;;;;;;0.63;0.63;;;4.90;99.90;7.40;100368.00;;;;4998674;28;20201;-68
2023/01/19 12:12:31;;;;;;;1.97;1.40;;;5.20;99.90;9.00;100388.00;;;;5014435;28;20306;-68
2023/01/19 12:15:01;;;;;;;0.97;0.97;;;5.90;99.90;8.90;100396.00;;;;5017595;28;20651;-68
2023/01/19 12:17:44;;;;;;;2.43;1.43;;;6.30;99.90;7.40;100390.00;;;;5023255;28;20610;-68
2023/01/19 12:20:41;;;;;;;1.10;0.87;;;6.00;99.90;8.00;100400.00;;;;4998266;28;20205;-68
2023/01/19 12:23:13;;;;;;;0.30;0.30;;;5.90;99.90;7.00;100394.00;;;;5049997;28;20193;-68
2023/01/19 12:25:52;;;;;;;2.53;1.90;;;5.60;99.90;6.50;100375.00;;;;5021391;28;20186;-70
2023/01/19 12:28:29;;;;;;;2.00;1.90;;;5.10;99.90;6.60;100345.00;;;;5039764;28;20191;-70
2023/01/19 12:30:56;;;;;;;0.97;0.97;;;5.00;99.90;7.50;100348.00;;;;5048016;28;20642;-70
2023/01/19 12:33:33;;;;;;;0.20;0.20;;;5.20;99.90;7.40;100379.00;;;;5042972;28;20269;-70
2023/01/19 12:36:27;;;;;;;0.20;0.20;;;5.20;99.90;8.90;100362.00;;;;5026270;28;20188;-70
2023/01/19 12:39:05;;;;;;;4.90;3.70;;;5.70;99.90;7.50;100389.00;;;;5017517;28;20557;-68
2023/01/19 12:41:36;;;;;;;1.20;1.20;;;5.60;99.90;6.90;100387.00;;;;5021813;28;20663;-68
2023/01/19 12:44:15;;;;;;;0.57;0.57;;;5.50;99.90;6.10;100367.00;;;;5017912;28;20189;-68
2023/01/19 12:46:48;;;;;;;1.80;1.47;;;4.90;99.90;6.70;100355.00;;;;5020906;28;20526;-68
2023/01/19 12:49:42;;;;;;;0.10;0.10;;;4.90;99.90;7.50;100357.00;;;;5021474;28;20215;-70
2023/01/19 12:52:29;;;;;;;0.93;0.70;;;5.10;99.90;6.70;100358.00;;;;5030662;28;20581;-71
2023/01/19 12:55:11;;;;;;;0.20;0.20;;;4.90;99.90;7.50;100369.00;;;;5021901;28;20189;-71
2023/01/19 12:57:59;;;;;;;0.60;0.60;;;5.10;99.90;6.60;100342.00;;;;5021596;28;20201;-71
2023/01/19 13:00:34;;;;;;;4.63;3.10;;;5.00;99.90;6.80;100319.00;;;;5014791;28;20194;-71
2023/01/19 13:03:18;;;;;;;0.20;0.20;;;4.90;99.90;7.10;100321.00;;;;5036678;28;20197;-71
2023/01/19 13:05:50;;;;;;;3.43;1.80;;;5.00;99.90;5.80;100345.00;;;;5028382;28;20591;-71
2023/01/19 13:08:19;;;;;;;2.70;2.60;;;4.70;99.90;6.60;100301.00;;;;5028956;28;20208;-71
2023/01/19 13:11:09;;;;;;;11.47;5.90;;;4.60;99.90;6.20;100348.00;;;;5053225;28;20175;-71
2023/01/19 13:13:51;;;;;;;3.03;2.83;;;4.60;99.90;5.50;100296.00;;;;5029550;28;20271;-70
2023/01/19 13:16:17;;;;;;;3.43;3.23;;;4.40;99.90;5.50;100339.00;;;;5021652;28;20189;-70
2023/01/19 13:19:16;;;;;;;8.10;5.80;;;4.30;99.90;5.30;100342.00;;;;5028906;28;20198;-70
2023/01/19 13:21:46;;;;;;;2.30;2.10;;;4.20;99.90;5.70;100335.00;;;;5027187;28;20191;-70
2023/01/19 13:24:23;;;;;;;2.93;2.30;;;4.20;99.90;5.80;100340.00;;;;5027916;28;20184;-70
2023/01/19 13:26:48;;;;;;;2.40;2.30;;;4.20;99.90;5.30;100300.00;;;;5003383;28;20187;-71
2023/01/19 13:29:34;;;;;;;2.00;1.90;;;4.20;99.90;5.70;100339.00;;;;5016983;28;20240;-70
2023/01/19 13:32:20;;;;;;;0.90;0.83;;;4.10;99.90;5.50;100335.00;;;;5016477;28;20241;-71
2023/01/19 13:34:57;;;;;;;3.13;2.33;;;4.10;99.90;6.00;100353.00;;;;5008373;28;20211;-71
2023/01/19 13:37:35;;;;;;;1.43;1.33;;;4.30;99.90;6.10;100345.00;;;;5004408;28;20193;-70
2023/01/19 13:40:02;;;;;;;0.83;0.83;;;4.30;99.90;5.80;100316.00;;;;5012962;28;20198;-70
2023/01/19 13:42:39;;;;;;;1.17;1.17;;;4.40;99.90;6.20;100348.00;;;;5012721;28;20280;-70
2023/01/19 13:45:32;;;;;;;0.80;0.80;;;4.40;99.90;5.50;100336.00;;;;5012445;28;20317;-70
2023/01/19 13:48:02;;;;;;;2.50;2.30;;;4.10;99.90;5.00;100298.00;;;;5016411;28;20190;-70
2023/01/19 13:50:32;;;;;;;2.13;1.50;;;4.00;99.90;5.60;100333.00;;;;5012841;28;20191;-70
2023/01/19 13:53:00;;;;;;;4.13;3.43;;;4.00;99.90;6.00;100344.00;;;;5028483;28;20286;-70
2023/01/19 13:55:31;;;;;;;0.20;0.20;;;4.20;99.90;6.70;100337.00;;;;5012490;28;20184;-71
2023/01/19 13:57:57;;;;;;;1.83;1.73;;;4.40;99.90;7.90;100359.00;;;;5029165;28;20551;-71
2023/01/19 14:00:29;;;;;;;0.47;0.47;;;5.00;99.90;7.70;100358.00;;;;5028798;28;20190;-71
2023/01/19 14:03:01;;;;;;;1.27;1.07;;;5.20;99.90;6.90;100384.00;;;;5029772;28;20232;-71
2023/01/19 14:05:39;;;;;;;0.30;0.30;;;5.20;99.90;6.80;100379.00;;;;5028952;28;20277;-71
2023/01/19 14:08:09;;;;;;;0.30;0.30;;;5.10;99.90;7.60;100337.00;;;;5026565;28;20206;-71
2023/01/19 14:10:52;;;;;;;0.50;0.50;;;5.10;99.90;7.10;100389.00;;;;5031442;28;20546;-71
2023/01/19 14:13:28;;;;;;;2.80;2.57;;;5.30;99.90;6.60;100374.00;;;;5011848;28;20662;-71
2023/01/19 14:16:16;;;;;;;1.57;1.47;;;5.00;99.90;6.50;100371.00;;;;5013294;28;20189;-71
2023/01/19 14:18:42;;;;;;;0.50;0.50;;;4.80;99.90;6.40;100359.00;;;;5011966;28;20239;-71
2023/01/19 14:21:10;;;;;;;1.60;0.97;;;4.70;99.90;6.80;100355.00;;;;5012113;28;20183;-71
2023/01/19 14:23:51;;;;;;;6.07;2.43;;;4.80;99.90;6.20;100376.00;;;;5012516;28;20191;-71
2023/01/19 14:26:50;;;;;;;2.20;1.90;;;4.70;99.90;5.90;100379.00;;;;5025244;28;20195;-70
2023/01/19 14:32:29;;;;;;;2.27;1.53;;;4.30;99.90;6.60;100367.00;;;;5017256;28;20230;-71
2023/01/19 14:35:03;;;;;;;0.83;0.83;;;4.40;99.90;7.60;100392.00;;;;5033930;28;20184;-71
2023/01/19 14:37:46;;;;;;;0.30;0.30;;;4.90;99.90;6.90;100383.00;;;;5017465;28;20188;-70
2023/01/19 14:40:21;;;;;;;1.53;0.57;;;4.70;99.90;6.00;100395.00;;;;5045230;28;20180;-70
2023/01/19 14:43:07;;;;;;;2.53;1.37;;;4.60;99.90;6.40;100398.00;;;;5011514;28;20651;-70
2023/01/19 14:45:45;;;;;;;0.50;0.50;;;4.60;99.90;7.10;100399.00;;;;5010197;28;20242;-70
2023/01/19 14:48:17;;;;;;;0.30;0.30;;;4.90;99.90;7.60;100408.00;;;;5011595;28;20186;-70
2023/01/19 14:50:45;;;;;;;3.30;1.70;;;5.00;99.90;5.90;100405.00;;;;5011275;28;20551;-70
2023/01/19 14:53:26;;;;;;;0.20;0.20;;;4.70;99.90;6.90;100386.00;;;;5018107;28;20673;-69
2023/01/19 14:56:03;;;;;;;5.73;5.37;;;4.80;99.90;7.00;100404.00;;;;5012108;28;20209;-70
2023/01/19 14:58:34;;;;;;;0.73;0.73;;;5.10;99.90;7.20;100372.00;;;;5016242;28;20197;-69
2023/01/19 15:01:05;;;;;;;0.30;0.30;;;5.00;99.90;8.50;100411.00;;;;5023182;28;20210;-70
2023/01/19 15:03:36;;;;;;;0.87;0.87;;;5.50;99.90;8.50;100439.00;;;;5006824;28;20262;-70
2023/01/19 15:06:02;;;;;;;0.30;0.30;;;5.90;99.90;7.90;100391.00;;;;5011405;28;20180;-69
2023/01/19 15:08:48;;;;;;;0.90;0.90;;;5.60;99.90;8.70;100434.00;;;;5028101;28;20550;-70
2023/01/19 15:11:32;;;;;;;1.23;1.13;;;5.80;99.90;9.20;100456.00;;;;5022633;28;20188;-70
2023/01/19 15:13:58;;;;;;;1.73;1.63;;;6.10;99.90;8.10;100458.00;;;;4983780;28;20654;-70
2023/01/19 15:16:35;;;;;;;0.57;0.57;;;6.10;99.90;8.50;100453.00;;;;5036129;28;20190;-70
2023/01/19 15:19:01;;;;;;;1.47;1.47;;;5.90;99.90;6.30;100446.00;;;;5000008;28;20187;-69
2023/01/19 15:21:27;;;;;;;4.67;3.90;;;5.20;99.90;6.50;100417.00;;;;5018635;28;20191;-69
2023/01/19 15:23:59;;;;;;;0.20;0.20;;;5.00;99.90;6.20;100432.00;;;;5035102;28;20192;-69
2023/01/19 15:26:34;;;;;;;1.43;0.80;;;4.70;99.90;7.20;100434.00;;;;5023458;28;20184;-70
2023/01/19 15:29:17;;;;;;;0.97;0.97;;;4.90;99.90;7.90;100444.00;;;;5031844;28;20592;-70
2023/01/19 15:31:45;;;;;;;0.30;0.30;;;5.20;99.90;8.30;100457.00;;;;5016346;28;20558;-70
2023/01/19 15:34:52;;;;;;;2.00;1.90;;;5.50;99.90;8.10;100470.00;;;;5015984;28;20206;-69
2023/01/19 15:37:31;;;;;;;0.30;0.30;;;5.40;99.90;7.90;100463.00;;;;5016317;28;20671;-70
2023/01/19 15:39:57;;;;;;;1.73;0.80;;;5.50;99.90;7.30;100461.00;;;;5027206;28;20175;-69
2023/01/19 15:42:27;;;;;;;1.40;1.40;;;5.30;99.90;6.40;100439.00;;;;5025659;28;20264;-70
2023/01/19 15:44:56;;;;;;;0.63;0.63;;;4.90;99.90;6.10;100428.00;;;;5026277;28;20669;-70
2023/01/19 15:47:22;;;;;;;0.97;0.97;;;4.60;99.90;6.20;100427.00;;;;5029779;28;20187;-70
2023/01/19 15:49:51;;;;;;;1.73;1.63;;;4.50;99.90;6.30;100396.00;;;;5007617;28;20191;-70
2023/01/19 15:52:19;;;;;;;0.20;0.20;;;4.50;99.90;6.20;100421.00;;;;5022616;28;20205;-70
2023/01/19 15:54:45;;;;;;;3.40;2.67;;;4.40;99.90;6.10;100430.00;;;;5016266;28;20279;-70
2023/01/19 15:57:11;;;;;;;0.67;0.67;;;4.40;99.90;6.60;100429.00;;;;5020322;28;20613;-70
2023/01/19 15:59:40;;;;;;;0.83;0.83;;;4.50;99.90;5.70;100424.00;;;;5020377;28;20192;-70
2023/01/19 16:02:12;;;;;;;1.17;1.17;;;4.30;99.90;5.90;100437.00;;;;5033922;28;20196;-70
2023/01/19 16:04:38;;;;;;;1.33;1.23;;;4.10;99.90;5.90;100421.00;;;;4999416;28;20273;-70
2023/01/19 16:07:04;;;;;;;2.57;1.70;;;4.10;99.90;5.70;100405.00;;;;5014897;28;20604;-70
2023/01/19 16:09:30;;;;;;;1.30;1.23;;;4.10;99.90;5.80;100435.00;;;;5027646;28;20183;-70
2023/01/19 16:11:58;;;;;;;7.33;1.70;;;4.10;99.90;5.40;100439.00;;;;5031478;28;20225;-69
2023/01/19 16:14:24;;;;;;;0.30;0.30;;;4.00;99.90;5.80;100442.00;;;;5016624;28;20191;-70
2023/01/19 16:16:50;;;;;;;5.20;4.07;;;3.90;99.90;5.20;100427.00;;;;5029460;28;20417;-70
2023/01/19 16:19:34;;;;;;;6.60;5.30;;;3.80;99.90;5.60;100417.00;;;;5018907;28;20531;-70
2023/01/19 16:22:10;;;;;;;0.30;0.30;;;3.80;99.90;5.50;100427.00;;;;5024606;28;20195;-70
2023/01/19 16:24:36;;;;;;;1.40;1.30;;;3.80;99.90;4.70;100429.00;;;;5002220;28;20209;-70
2023/01/19 16:27:02;;;;;;;0.50;0.50;;;3.60;99.90;5.10;100429.00;;;;5013235;28;20180;-69
2023/01/19 16:29:32;;;;;;;3.07;1.80;;;3.60;99.90;5.50;100437.00;;;;4998466;28;20241;-70
2023/01/19 16:31:58;;;;;;;2.00;1.90;;;3.70;99.90;5.60;100442.00;;;;5014229;28;20215;-70
2023/01/19 16:34:24;;;;;;;2.20;1.80;;;3.80;99.90;5.30;100434.00;;;;5033403;28;20190;-69
2023/01/19 16:36:50;;;;;;;3.27;2.97;;;3.70;99.90;4.80;100438.00;;;;5019712;28;20702;-70
2023/01/19 16:39:17;;;;;;;1.23;1.23;;;3.60;99.90;5.20;100431.00;;;;5013988;28;20302;-69
2023/01/19 16:41:45;;;;;;;5.07;4.67;;;3.60;99.90;5.10;100437.00;;;;5026714;28;20198;-70
2023/01/19 16:44:14;;;;;;;11.00;9.90;;;3.50;99.90;4.70;100433.00;;;;5013099;28;20573;-70
2023/01/19 16:46:45;;;;;;;1.00;0.97;;;3.40;99.90;5.30;100443.00;;;;5030236;28;20194;-70
2023/01/19 16:49:21;;;;;;;0.80;0.80;;;3.40;99.90;6.10;100446.00;;;;5022078;28;20205;-70
2023/01/19 16:51:52;;;;;;;2.60;1.93;;;3.70;99.90;5.30;100440.00;;;;5013792;28;20301;-70
2023/01/19 16:54:24;;;;;;;0.87;0.87;;;3.70;99.90;5.50;100447.00;;;;5014188;28;20293;-70
2023/01/19 16:56:51;;;;;;;0.30;0.30;;;3.70;99.90;6.50;100473.00;;;;5029610;28;20541;-70
2023/01/19 16:59:18;;;;;;;14.27;6.60;;;3.90;99.90;6.70;100490.00;;;;5029209;28;20210;-70
2023/01/19 17:01:51;;;;;;;2.20;1.50;;;4.20;99.90;6.20;100468.00;;;;5013001;28;20203;-70
2023/01/19 17:04:19;;;;;;;0.30;0.30;;;4.10;99.90;6.10;100451.00;;;;5013203;28;20183;-70
2023/01/19 17:07:10;;;;;;;0.30;0.30;;;3.90;99.90;6.30;100487.00;;;;5012843;28;20200;-70
2023/01/19 17:09:59;;;;;;;4.13;1.27;;;3.80;99.90;5.90;100488.00;;;;4990986;28;20203;-70
2023/01/19 17:12:24;;;;;;;0.93;0.60;;;3.70;99.90;6.10;100492.00;;;;5017692;28;20226;-70
2023/01/19 17:14:50;;;;;;;1.30;1.30;;;3.80;99.90;4.80;100483.00;;;;5030201;28;20190;-70
2023/01/19 17:17:16;;;;;;;0.30;0.30;;;3.60;99.90;5.40;100483.00;;;;5021240;28;20191;-70
2023/01/19 17:19:43;;;;;;;0.30;0.30;;;3.40;99.90;6.20;100459.00;;;;5015288;28;20632;-70
2023/01/19 17:22:11;;;;;;;1.53;1.33;;;3.70;99.90;5.30;100495.00;;;;5026660;28;20677;-70
2023/01/19 17:24:42;;;;;;;0.30;0.30;;;3.70;99.90;5.80;100493.00;;;;5024420;28;20230;-70
2023/01/19 17:27:11;;;;;;;5.50;4.80;;;3.60;99.90;5.50;100498.00;;;;5029668;28;20190;-70
2023/01/19 17:29:37;;;;;;;1.13;1.13;;;3.60;99.90;6.50;100508.00;;;;5000438;28;20250;-70
2023/01/19 17:32:03;;;;;;;0.37;0.37;;;3.80;99.90;6.00;100508.00;;;;5033597;28;20215;-70
2023/01/19 17:34:29;;;;;;;0.47;0.47;;;3.80;99.90;5.70;100500.00;;;;5030493;28;20278;-70
2023/01/19 17:37:01;;;;;;;0.50;0.50;;;3.60;99.90;5.10;100489.00;;;;5019085;28;20267;-70
2023/01/19 17:39:27;;;;;;;0.70;0.70;;;3.40;99.90;5.80;100492.00;;;;5015050;28;20638;-70
2023/01/19 17:41:54;;;;;;;0.30;0.30;;;3.40;99.90;5.10;100509.00;;;;5013279;28;20549;-70
2023/01/19 17:44:23;;;;;;;0.40;0.40;;;3.30;99.90;5.40;100492.00;;;;5017838;28;20229;-70
2023/01/19 17:46:49;;;;;;;0.30;0.30;;;3.30;99.90;5.30;100465.00;;;;5012279;28;20183;-70
2023/01/19 17:49:23;;;;;;;1.03;1.03;;;3.30;99.90;5.70;100506.00;;;;5012135;28;20241;-71
2023/01/19 17:51:54;;;;;;;2.93;2.57;;;3.30;99.90;4.80;100488.00;;;;5028956;28;20207;-70
2023/01/19 17:54:33;;;;;;;0.97;0.97;;;3.10;99.90;4.40;100485.00;;;;5005151;28;20187;-70
2023/01/19 17:56:59;;;;;;;2.67;1.93;;;2.80;99.90;4.50;100490.00;;;;5014238;28;20230;-70
2023/01/19 17:59:33;;;;;;;0.40;0.40;;;2.80;99.90;4.50;100475.00;;;;5020886;28;20643;-70
2023/01/19 18:01:59;;;;;;;0.47;0.47;;;2.70;99.90;4.70;100503.00;;;;5009549;28;20628;-70
2023/01/19 18:04:45;;;;;;;1.43;1.43;;;2.80;99.90;4.00;100489.00;;;;5016722;28;20187;-70
2023/01/19 18:07:13;;;;;;;0.90;0.90;;;2.60;99.90;4.00;100480.00;;;;5012099;28;20258;-70
2023/01/19 18:09:54;;;;;;;3.27;1.73;;;2.50;99.90;4.30;100456.00;;;;5029567;28;20179;-70
2023/01/19 18:12:44;;;;;;;0.60;0.50;;;2.50;99.90;4.80;100504.00;;;;5032037;28;20256;-70
2023/01/19 18:15:10;;;;;;;1.77;1.67;;;2.70;99.90;4.40;100497.00;;;;5015808;28;20212;-70
2023/01/19 18:17:57;;;;;;;0.50;0.50;;;2.70;99.90;4.60;100485.00;;;;5012658;28;20571;-70
2023/01/19 18:20:22;;;;;;;2.20;2.10;;;2.70;99.90;4.00;100495.00;;;;5016864;28;20214;-70
2023/01/19 18:22:51;;;;;;;2.83;2.63;;;2.50;99.90;3.90;100451.00;;;;5026773;28;20231;-70
2023/01/19 18:25:17;;;;;;;1.27;1.27;;;2.50;99.90;3.90;100492.00;;;;5012214;28;20310;-70
2023/01/19 18:27:43;;;;;;;1.47;1.47;;;2.40;99.90;4.40;100506.00;;;;5028731;28;20238;-70
2023/01/19 18:30:09;;;;;;;0.30;0.30;;;2.60;99.90;4.40;100498.00;;;;5025680;28;20191;-70
2023/01/19 18:32:53;;;;;;;1.37;1.27;;;2.60;99.90;3.90;100496.00;;;;5012045;28;20210;-70
2023/01/19 18:35:19;;;;;;;0.40;0.40;;;2.50;99.90;4.70;100487.00;;;;5015366;28;20685;-70
2023/01/19 18:37:47;;;;;;;1.17;1.17;;;2.60;99.90;4.30;100500.00;;;;5011868;28;20179;-70
2023/01/19 18:40:16;;;;;;;2.23;2.13;;;2.70;99.90;4.50;100497.00;;;;5006108;28;20542;-70
2023/01/19 18:42:42;;;;;;;0.40;0.40;;;2.70;99.90;4.50;100487.00;;;;5012603;28;20906;-70
2023/01/19 18:45:11;;;;;;;1.90;1.73;;;2.50;99.90;3.80;100498.00;;;;5012945;28;20191;-70
2023/01/19 18:47:37;;;;;;;1.50;1.43;;;2.50;99.90;3.90;100491.00;;;;5011732;28;20187;-70
2023/01/19 18:50:04;;;;;;;1.27;1.27;;;2.40;99.90;3.50;100448.00;;;;5007241;28;20187;-70
2023/01/19 18:52:31;;;;;;;0.63;0.63;;;2.30;99.90;4.00;100493.00;;;;5019742;28;20203;-70
2023/01/19 18:54:58;;;;;;;0.50;0.50;;;2.30;99.90;4.40;100490.00;;;;5024064;28;20190;-70
2023/01/19 18:57:31;;;;;;;3.23;2.83;;;2.30;99.90;3.80;100492.00;;;;5026813;28;20265;-70
2023/01/19 19:00:00;;;;;;;0.83;0.83;;;2.30;99.90;3.80;100497.00;;;;5014010;28;20195;-70
2023/01/19 19:02:31;;;;;;;1.50;1.03;;;2.20;99.90;4.60;100511.00;;;;5010996;28;20221;-70
2023/01/19 19:05:17;;;;;;;1.13;0.80;;;2.40;99.90;4.40;100485.00;;;;5017692;28;20190;-70
2023/01/19 19:07:46;;;;;;;1.73;1.63;;;2.40;99.90;3.30;100490.00;;;;5033743;28;20190;-70
2023/01/19 19:10:17;;;;;;;2.03;1.93;;;2.20;99.90;3.00;100474.00;;;;5019327;28;20282;-69
2023/01/19 19:12:43;;;;;;;3.20;1.70;;;2.00;99.90;4.10;100512.00;;;;5004878;28;20690;-70
2023/01/19 19:15:09;;;;;;;0.53;0.53;;;2.10;99.90;4.10;100527.00;;;;5013542;28;20195;-69
2023/01/19 19:17:35;;;;;;;1.50;1.00;;;2.40;99.90;3.70;100474.00;;;;5021777;28;20361;-70
2023/01/19 19:20:02;;;;;;;5.90;5.50;;;2.30;99.90;4.00;100517.00;;;;5015490;28;20654;-72
2023/01/19 19:22:39;;;;;;;1.00;1.00;;;2.30;99.90;5.00;100517.00;;;;5029476;28;20187;-70